createdAt,value
2022-09-06T00:05:19.494Z,100730.38
2022-09-06T00:15:22.394Z,100747.72
2022-09-06T00:25:24.062Z,100815.53
2022-09-06T00:35:27.442Z,100835.69
2022-09-06T00:45:30.406Z,100843.41
2022-09-06T00:55:32.420Z,100830.91
2022-09-06T01:05:50.588Z,100825.63
2022-09-06T01:16:03.125Z,100834.53
2022-09-06T01:26:38.513Z,100838.59
2022-09-06T01:37:13.470Z,100823.09
2022-09-06T01:47:35.443Z,100801.38
2022-09-06T01:58:14.803Z,100808.88
2022-09-06T02:08:22.464Z,100808.25
2022-09-06T02:18:31.020Z,100805.59
2022-09-06T02:28:33.276Z,100844.44
2022-09-06T02:38:37.987Z,100833.59
2022-09-06T02:48:39.802Z,100816.97
2022-09-06T02:58:41.700Z,100804.06
2022-09-06T03:08:43.452Z,100789.94
2022-09-06T03:18:45.691Z,100784.03
2022-09-06T03:28:47.516Z,100780.13
2022-09-06T03:38:51.146Z,100763.88
2022-09-06T03:48:52.989Z,100760.34
2022-09-06T03:58:54.710Z,100759.13
2022-09-06T04:08:56.278Z,100750.19
2022-09-06T04:19:00.093Z,100741.72
2022-09-06T04:29:01.854Z,100743.50
2022-09-06T04:39:03.853Z,100751.13
2022-09-06T04:49:05.495Z,100762.19
2022-09-06T04:59:07.450Z,100750.63
2022-09-06T05:09:09.955Z,100752.19
2022-09-06T05:19:13.334Z,100764.06
2022-09-06T05:29:14.943Z,100776.06
2022-09-06T05:39:19.257Z,100769.78
2022-09-06T05:49:21.001Z,100762.41
2022-09-06T05:59:22.671Z,100776.84
2022-09-06T06:09:24.487Z,100762.31
2022-09-06T06:19:26.906Z,100780.97
2022-09-06T06:29:28.504Z,100772.47
2022-09-06T06:39:30.149Z,100772.28
2022-09-06T06:49:32.646Z,100770.50
2022-09-06T06:59:34.449Z,100775.75
2022-09-06T07:20:15.008Z,100761.03
2022-09-06T07:30:17.145Z,100747.72
2022-09-06T07:40:18.847Z,100750.44
2022-09-06T08:00:43.128Z,100747.97
2022-09-06T08:10:50.788Z,100747.47
2022-09-06T08:20:52.431Z,100738.13
2022-09-06T08:30:54.289Z,100725.13
2022-09-06T08:41:10.221Z,100727.19
2022-09-06T08:51:45.082Z,100724.41
2022-09-06T09:01:49.916Z,100716.50
2022-09-06T09:11:51.765Z,100711.78
2022-09-06T09:21:53.592Z,100707.31
2022-09-06T09:31:56.527Z,100691.34
2022-09-06T09:41:58.632Z,100666.41
2022-09-06T09:52:13.637Z,100662.75
2022-09-06T10:02:28.437Z,100654.97
2022-09-06T10:12:33.294Z,100647.03
2022-09-06T10:22:59.722Z,100656.19
2022-09-06T10:33:23.375Z,100632.94
2022-09-06T10:43:32.095Z,100623.41
2022-09-06T10:53:45.470Z,100599.69
2022-09-06T11:03:58.493Z,100600.56
2022-09-06T11:14:11.600Z,100592.22
2022-09-06T11:24:44.809Z,100584.38
2022-09-06T11:34:58.034Z,100580.81
2022-09-06T11:44:59.682Z,100582.09
2022-09-06T11:55:01.839Z,100566.16
2022-09-06T12:05:07.144Z,100556.16
2022-09-06T12:15:26.059Z,100570.88
2022-09-06T12:25:34.287Z,100574.75
2022-09-06T12:45:59.813Z,100537.88
2022-09-06T12:56:05.982Z,100537.22
2022-09-06T13:06:10.384Z,100539.38
2022-09-06T13:16:12.359Z,100551.50
2022-09-06T13:26:15.231Z,100539.97
2022-09-06T13:36:22.657Z,100530.56
2022-09-06T13:46:24.561Z,100535.41
2022-09-06T13:56:26.563Z,100542.00
2022-09-06T14:06:29.037Z,100530.84
2022-09-06T14:16:31.541Z,100525.78
2022-09-06T14:26:34.123Z,100513.34
2022-09-06T14:36:35.880Z,100506.69
2022-09-06T14:46:38.045Z,100491.22
2022-09-06T14:56:43.721Z,100479.31
2022-09-06T15:06:47.683Z,100468.19
2022-09-06T15:16:55.845Z,100452.72
2022-09-06T15:26:58.606Z,100451.72
2022-09-06T15:37:00.256Z,100430.84
2022-09-06T15:47:02.346Z,100441.47
2022-09-06T15:57:05.326Z,100442.28
2022-09-06T16:07:07.244Z,100430.84
2022-09-06T16:17:09.148Z,100430.84
2022-09-06T16:27:10.833Z,100429.69
2022-09-06T16:37:12.427Z,100410.78
2022-09-06T16:47:16.635Z,100413.94
2022-09-06T16:57:19.026Z,100408.44
2022-09-06T17:07:20.707Z,100408.94
2022-09-06T17:17:22.509Z,100400.66
2022-09-06T17:27:25.355Z,100409.34
2022-09-06T17:37:32.035Z,100410.00
2022-09-06T17:47:35.211Z,100405.00
2022-09-06T17:57:37.151Z,100413.59
2022-09-06T18:07:39.340Z,100401.00
2022-09-06T18:17:41.347Z,100425.78
2022-09-06T18:27:43.295Z,100428.94
2022-09-06T18:37:45.342Z,100429.13
2022-09-06T18:47:48.282Z,100432.13
2022-09-06T18:57:50.193Z,100422.41
2022-09-06T19:07:52.125Z,100426.50
2022-09-06T19:17:54.047Z,100417.25
2022-09-06T19:27:55.679Z,100411.38
2022-09-06T19:37:57.465Z,100403.09
2022-09-06T19:47:59.439Z,100407.47
2022-09-06T19:58:06.590Z,100405.25
2022-09-06T20:08:08.263Z,100428.44
2022-09-06T20:18:10.061Z,100498.03
2022-09-06T20:28:11.924Z,100548.19
2022-09-06T20:38:13.909Z,100535.53
2022-09-06T20:48:15.868Z,100543.09
2022-09-06T20:58:17.843Z,100532.97
2022-09-06T21:08:19.904Z,100549.38
2022-09-06T21:18:23.207Z,100505.56
2022-09-06T21:28:28.097Z,100465.59
2022-09-06T21:38:31.425Z,100401.22
2022-09-06T21:48:38.311Z,100319.81
2022-09-06T21:58:42.349Z,100311.63
2022-09-06T22:08:44.652Z,100302.88
2022-09-06T22:18:47.755Z,100285.09
2022-09-06T22:28:54.384Z,100295.22
2022-09-06T22:38:59.174Z,100295.50
2022-09-06T22:49:02.307Z,100311.38
2022-09-06T22:59:04.750Z,100330.53
2022-09-06T23:09:06.925Z,100356.03
2022-09-06T23:19:08.727Z,100504.66
2022-09-06T23:29:12.903Z,100520.88
2022-09-06T23:39:14.582Z,100572.78
2022-09-06T23:49:16.894Z,100639.28
2022-09-06T23:59:19.093Z,100583.97
